Time;durP1;ratioP1;P1;durP2;ratioP2;P2;SDS_P1;SDS_P2;PMS_P1;PMS_P2;Temp;Humidity;BMP_temperature;BMP_pressure;BME280_temperature;BME280_humidity;BME280_pressure;Samples;Min_cycle;Max_cycle;Signal;HPM_P1;HPM_P2
2023/12/24 00:02:25;;;;;;;11.23;1.88;;;10.70;99.90;;;;;;5057554;28;20040;-81
2023/12/24 00:04:50;;;;;;;10.05;2.03;;;10.70;99.90;;;;;;5061335;28;20044;-81
2023/12/24 00:07:16;;;;;;;12.32;2.20;;;10.70;99.90;;;;;;5059233;28;20021;-80
2023/12/24 00:09:42;;;;;;;8.55;2.10;;;10.60;99.90;;;;;;5066539;28;20040;-82
2023/12/24 00:12:08;;;;;;;17.70;2.83;;;10.60;99.90;;;;;;5057631;28;20033;-81
2023/12/24 00:14:33;;;;;;;11.10;2.92;;;10.60;99.90;;;;;;5060964;28;20326;-81
2023/12/24 00:16:59;;;;;;;21.38;3.53;;;10.60;99.90;;;;;;5059049;28;20028;-80
2023/12/24 00:19:25;;;;;;;15.90;3.55;;;10.60;99.90;;;;;;5060562;28;20124;-80
2023/12/24 00:21:51;;;;;;;17.15;3.47;;;10.60;99.90;;;;;;5057480;28;20115;-82
2023/12/24 00:24:18;;;;;;;16.83;3.63;;;10.60;99.90;;;;;;5061807;28;20082;-82
2023/12/24 00:26:43;;;;;;;18.23;3.58;;;10.60;99.90;;;;;;5061873;28;20036;-81
2023/12/24 00:29:09;;;;;;;16.08;3.38;;;10.60;99.90;;;;;;5063163;28;20039;-81
2023/12/24 00:31:34;;;;;;;15.02;3.85;;;10.60;99.90;;;;;;5063014;28;20039;-82
2023/12/24 00:34:00;;;;;;;24.30;4.22;;;10.70;99.90;;;;;;5060307;28;20044;-82
2023/12/24 00:36:26;;;;;;;33.95;5.53;;;10.80;99.90;;;;;;5062269;28;20541;-82
2023/12/24 00:38:51;;;;;;;17.05;3.80;;;10.80;99.90;;;;;;5061582;28;20484;-82
2023/12/24 00:41:17;;;;;;;14.95;3.13;;;10.80;99.90;;;;;;5056907;28;20122;-82
2023/12/24 00:43:43;;;;;;;21.88;3.80;;;10.90;99.90;;;;;;5060082;28;20041;-81
2023/12/24 00:46:14;;;;;;;24.55;4.28;;;11.00;99.90;;;;;;5061218;28;20020;-81
2023/12/24 00:48:40;;;;;;;22.55;4.35;;;11.00;99.90;;;;;;5063998;28;20147;-81
2023/12/24 00:51:06;;;;;;;21.70;4.65;;;11.00;99.90;;;;;;5060572;28;20166;-80
2023/12/24 00:53:32;;;;;;;24.13;3.67;;;11.00;99.90;;;;;;5062730;28;20503;-81
2023/12/24 00:55:58;;;;;;;17.23;3.70;;;11.00;99.90;;;;;;5059221;28;20192;-83
2023/12/24 00:58:25;;;;;;;31.33;4.60;;;10.90;99.90;;;;;;5062609;28;20040;-81
2023/12/24 01:00:50;;;;;;;28.05;5.05;;;10.80;99.90;;;;;;5058883;28;20099;-81
2023/12/24 01:03:16;;;;;;;24.58;4.72;;;10.80;99.90;;;;;;5063861;28;20468;-82
2023/12/24 01:05:42;;;;;;;23.50;5.55;;;10.80;99.90;;;;;;5062992;28;20040;-80
2023/12/24 01:08:08;;;;;;;28.55;4.97;;;10.90;99.90;;;;;;5061921;28;20355;-80
2023/12/24 01:10:33;;;;;;;19.58;5.30;;;10.80;99.90;;;;;;5061376;28;20380;-80
2023/12/24 01:12:59;;;;;;;19.85;3.95;;;10.90;99.90;;;;;;5061092;28;20117;-81
2023/12/24 01:15:24;;;;;;;16.98;4.22;;;10.90;99.90;;;;;;5053909;28;20508;-80
2023/12/24 01:17:50;;;;;;;23.42;4.60;;;10.90;99.90;;;;;;5052161;28;20033;-82
2023/12/24 01:20:16;;;;;;;16.35;4.57;;;11.00;99.90;;;;;;5056869;28;20040;-82
2023/12/24 01:22:42;;;;;;;22.30;5.07;;;11.00;99.90;;;;;;5058393;28;20434;-82
2023/12/24 01:25:09;;;;;;;22.88;4.50;;;11.00;99.90;;;;;;5062803;28;20122;-82
2023/12/24 01:27:35;;;;;;;21.20;3.72;;;11.00;99.90;;;;;;5062355;28;20055;-82
2023/12/24 01:30:01;;;;;;;8.80;2.95;;;11.00;99.90;;;;;;5058892;28;20573;-82
2023/12/24 01:32:27;;;;;;;27.75;5.03;;;11.00;99.90;;;;;;5060901;28;20048;-83
2023/12/24 01:34:52;;;;;;;19.88;4.68;;;11.00;99.90;;;;;;5063921;28;20083;-83
2023/12/24 01:37:18;;;;;;;19.10;4.70;;;10.90;99.90;;;;;;5064145;28;20044;-82
2023/12/24 01:39:44;;;;;;;16.38;5.63;;;11.00;99.90;;;;;;5066344;28;20076;-80
2023/12/24 01:42:09;;;;;;;16.63;5.50;;;10.90;99.90;;;;;;5062738;28;20024;-79
2023/12/24 01:44:35;;;;;;;14.25;3.92;;;10.90;99.90;;;;;;5063268;28;20074;-80
2023/12/24 01:47:01;;;;;;;15.45;3.97;;;10.80;99.90;;;;;;5062482;28;20280;-80
2023/12/24 01:49:27;;;;;;;11.55;3.47;;;10.80;99.90;;;;;;5057916;28;20021;-81
2023/12/24 01:51:53;;;;;;;16.08;4.55;;;10.90;99.90;;;;;;5062565;28;20045;-80
2023/12/24 01:54:19;;;;;;;16.00;3.78;;;10.80;99.90;;;;;;5063706;28;20039;-83
2023/12/24 01:56:44;;;;;;;23.23;4.60;;;10.80;99.90;;;;;;5064938;28;20451;-80
2023/12/24 01:59:11;;;;;;;15.52;4.10;;;10.80;99.90;;;;;;5064228;28;20068;-81
2023/12/24 02:01:37;;;;;;;21.00;4.30;;;10.80;99.90;;;;;;5059339;28;20024;-81
2023/12/24 02:04:03;;;;;;;22.20;3.95;;;10.80;99.90;;;;;;5060063;28;20024;-81
2023/12/24 02:06:31;;;;;;;14.25;5.22;;;10.90;99.90;;;;;;5062203;28;20021;-81
2023/12/24 02:08:56;;;;;;;18.02;3.85;;;10.90;99.90;;;;;;5064862;28;20028;-81
2023/12/24 02:11:22;;;;;;;17.15;3.22;;;10.90;99.90;;;;;;5059159;28;20314;-81
2023/12/24 02:13:49;;;;;;;17.85;4.78;;;10.90;99.90;;;;;;5058233;28;20025;-82
2023/12/24 02:16:21;;;;;;;14.02;3.45;;;10.90;99.90;;;;;;5062369;28;20074;-82
2023/12/24 02:18:48;;;;;;;19.58;3.75;;;10.90;99.90;;;;;;5057017;28;20476;-83
2023/12/24 02:21:13;;;;;;;14.25;4.03;;;10.90;99.90;;;;;;5058900;28;20032;-82
2023/12/24 02:23:39;;;;;;;16.48;4.60;;;11.00;99.90;;;;;;5058778;28;20089;-82
2023/12/24 02:26:29;;;;;;;13.75;4.05;;;11.00;99.90;;;;;;5066045;28;20043;-82
2023/12/24 02:29:01;;;;;;;15.27;4.63;;;11.00;99.90;;;;;;5061077;28;20021;-82
2023/12/24 02:31:32;;;;;;;17.10;4.78;;;11.10;99.90;;;;;;5057219;28;20123;-82
2023/12/24 02:34:00;;;;;;;16.75;4.78;;;11.10;99.90;;;;;;5059796;28;20032;-82
2023/12/24 02:36:26;;;;;;;21.30;4.47;;;11.10;99.90;;;;;;5061889;28;20033;-81
2023/12/24 02:38:52;;;;;;;17.52;4.43;;;11.10;99.90;;;;;;5064774;28;20036;-81
2023/12/24 02:41:17;;;;;;;16.67;3.63;;;11.10;99.90;;;;;;5059673;28;20114;-82
2023/12/24 02:43:43;;;;;;;16.20;4.18;;;11.00;99.90;;;;;;5057193;28;20139;-83
2023/12/24 02:46:08;;;;;;;20.25;3.88;;;11.10;99.90;;;;;;5063573;28;20123;-82
2023/12/24 02:48:34;;;;;;;19.45;4.28;;;11.20;99.90;;;;;;5063261;28;20025;-82
2023/12/24 02:51:00;;;;;;;19.15;4.22;;;11.10;99.90;;;;;;5057681;28;20032;-82
2023/12/24 02:53:25;;;;;;;23.27;4.10;;;11.20;99.90;;;;;;5061446;28;20655;-82
2023/12/24 02:55:51;;;;;;;28.92;6.03;;;11.10;99.90;;;;;;5063736;28;20040;-82
2023/12/24 02:58:17;;;;;;;17.13;5.05;;;11.20;99.90;;;;;;5065834;28;20021;-81
2023/12/24 03:00:42;;;;;;;17.45;4.50;;;11.20;99.90;;;;;;5058531;28;20051;-80
2023/12/24 03:03:12;;;;;;;14.10;3.65;;;11.20;99.90;;;;;;5056558;28;20154;-81
2023/12/24 03:05:37;;;;;;;12.35;3.10;;;11.20;99.90;;;;;;5058631;28;20060;-83
2023/12/24 03:08:03;;;;;;;18.77;4.50;;;11.30;99.90;;;;;;5063049;28;20534;-82
2023/12/24 03:10:29;;;;;;;20.95;4.40;;;11.30;99.90;;;;;;5060652;28;20024;-83
2023/12/24 03:12:54;;;;;;;14.43;3.70;;;11.30;99.90;;;;;;5064096;28;20427;-83
2023/12/24 03:15:20;;;;;;;14.82;3.67;;;11.30;99.90;;;;;;5066676;28;20028;-82
2023/12/24 03:17:45;;;;;;;16.70;3.67;;;11.30;99.90;;;;;;5060558;28;20025;-82
2023/12/24 03:20:11;;;;;;;16.95;3.60;;;11.40;99.90;;;;;;5059353;28;20784;-82
2023/12/24 03:22:37;;;;;;;17.83;3.45;;;11.40;99.90;;;;;;5057436;28;20144;-82
2023/12/24 03:25:04;;;;;;;18.20;2.90;;;11.50;99.90;;;;;;5063145;28;20266;-83
2023/12/24 03:27:29;;;;;;;12.73;3.25;;;11.50;99.90;;;;;;5063701;28;20139;-82
2023/12/24 03:29:55;;;;;;;20.08;3.25;;;11.50;99.90;;;;;;5061354;28;20185;-82
2023/12/24 03:32:20;;;;;;;16.52;2.80;;;11.60;99.90;;;;;;5065340;28;20033;-82
2023/12/24 03:34:46;;;;;;;17.40;3.58;;;11.60;99.90;;;;;;5065904;28;20028;-82
2023/12/24 03:37:12;;;;;;;13.50;3.38;;;11.60;99.90;;;;;;5060978;28;20445;-82
2023/12/24 03:39:37;;;;;;;21.80;3.03;;;11.60;99.90;;;;;;5065603;28;20086;-82
2023/12/24 03:42:03;;;;;;;17.73;3.05;;;11.60;99.90;;;;;;5065870;28;20123;-82
2023/12/24 03:44:29;;;;;;;12.43;2.90;;;11.60;99.90;;;;;;5062275;28;20027;-82
2023/12/24 03:46:54;;;;;;;6.30;2.10;;;11.60;99.90;;;;;;5065849;28;20031;-82
2023/12/24 03:49:20;;;;;;;8.70;2.60;;;11.70;99.90;;;;;;5066587;28;20033;-82
2023/12/24 03:51:47;;;;;;;10.10;2.25;;;11.70;99.90;;;;;;5055170;28;20175;-82
2023/12/24 03:54:13;;;;;;;15.25;2.95;;;11.80;99.90;;;;;;5062757;28;20028;-81
2023/12/24 03:56:39;;;;;;;9.27;2.40;;;11.70;99.90;;;;;;5063044;28;20020;-81
2023/12/24 03:59:04;;;;;;;8.60;2.15;;;11.80;99.90;;;;;;5061484;28;20032;-81
2023/12/24 04:01:30;;;;;;;11.82;2.08;;;11.80;99.90;;;;;;5062954;28;20733;-82
2023/12/24 04:03:56;;;;;;;6.05;1.88;;;11.90;99.90;;;;;;5060862;28;20032;-81
2023/12/24 04:06:21;;;;;;;10.65;2.10;;;11.80;99.90;;;;;;5063627;28;20601;-81
2023/12/24 04:08:47;;;;;;;13.73;2.30;;;11.90;99.90;;;;;;5065045;28;20086;-81
2023/12/24 04:11:14;;;;;;;10.60;2.95;;;11.90;99.90;;;;;;5058971;28;20040;-81
2023/12/24 04:13:40;;;;;;;11.65;2.20;;;11.90;99.90;;;;;;5059623;28;20024;-81
2023/12/24 04:16:07;;;;;;;9.35;2.08;;;11.90;99.90;;;;;;5061750;28;20412;-81
2023/12/24 04:18:33;;;;;;;6.18;1.73;;;11.90;99.90;;;;;;5066839;28;20074;-81
2023/12/24 04:21:00;;;;;;;5.28;1.35;;;12.00;99.90;;;;;;5059576;28;20124;-81
2023/12/24 04:23:26;;;;;;;13.85;2.38;;;12.00;99.90;;;;;;5060457;28;20407;-82
2023/12/24 04:25:52;;;;;;;9.48;1.80;;;12.00;99.90;;;;;;5061843;28;20024;-81
2023/12/24 04:28:17;;;;;;;6.38;1.60;;;12.00;99.90;;;;;;5074352;28;20036;-80
2023/12/24 04:30:43;;;;;;;5.32;1.50;;;12.00;99.90;;;;;;5076334;28;20036;-82
2023/12/24 04:33:08;;;;;;;13.02;1.73;;;12.00;99.90;;;;;;5077269;28;20028;-80
2023/12/24 04:35:34;;;;;;;13.45;1.55;;;12.10;99.90;;;;;;5074593;28;20028;-81
2023/12/24 04:38:00;;;;;;;10.07;1.60;;;12.10;99.90;;;;;;5064269;28;20426;-81
2023/12/24 04:40:26;;;;;;;4.28;1.25;;;12.10;99.90;;;;;;5062372;28;20052;-81
2023/12/24 04:42:51;;;;;;;8.40;1.95;;;12.10;99.90;;;;;;5062060;28;20039;-81
2023/12/24 04:45:18;;;;;;;8.75;1.88;;;12.10;99.90;;;;;;5064148;28;20601;-81
2023/12/24 04:47:43;;;;;;;6.25;1.60;;;12.10;99.90;;;;;;5063792;28;20028;-81
2023/12/24 04:50:09;;;;;;;7.20;1.52;;;12.00;99.90;;;;;;5065597;28;20051;-81
2023/12/24 04:52:37;;;;;;;9.60;1.60;;;12.10;99.90;;;;;;5063223;28;20123;-81
2023/12/24 04:55:06;;;;;;;9.68;2.10;;;12.10;99.90;;;;;;5056957;28;20028;-81
2023/12/24 04:57:32;;;;;;;8.05;1.80;;;12.10;99.90;;;;;;5062492;28;20028;-81
2023/12/24 04:59:58;;;;;;;9.00;2.17;;;12.10;99.90;;;;;;5063187;28;20036;-81
2023/12/24 05:02:23;;;;;;;5.10;1.80;;;12.10;99.90;;;;;;5062046;28;20025;-81
2023/12/24 05:04:49;;;;;;;7.13;1.70;;;12.10;99.90;;;;;;5062877;28;20036;-80
2023/12/24 05:07:15;;;;;;;9.93;1.80;;;12.20;99.90;;;;;;5060739;28;20106;-81
2023/12/24 05:09:42;;;;;;;7.82;1.70;;;12.20;99.90;;;;;;5065707;28;20094;-80
2023/12/24 05:12:08;;;;;;;10.52;1.70;;;12.20;99.90;;;;;;5062850;28;20037;-80
2023/12/24 05:14:34;;;;;;;10.50;1.45;;;12.20;99.90;;;;;;5056144;28;20040;-80
2023/12/24 05:17:02;;;;;;;6.00;1.55;;;12.20;99.90;;;;;;5055528;28;20029;-80
2023/12/24 05:19:27;;;;;;;12.70;1.95;;;12.20;99.90;;;;;;5061608;28;20039;-80
2023/12/24 05:21:53;;;;;;;8.35;1.95;;;12.20;99.90;;;;;;5060914;28;20032;-80
2023/12/24 05:24:19;;;;;;;8.35;2.45;;;12.20;99.90;;;;;;5061200;28;20476;-80
2023/12/24 05:26:44;;;;;;;5.63;1.50;;;12.20;99.90;;;;;;5057797;28;20595;-80
2023/12/24 05:29:10;;;;;;;8.98;1.60;;;12.30;99.90;;;;;;5053132;28;20029;-81
2023/12/24 05:31:39;;;;;;;6.72;1.73;;;12.30;99.90;;;;;;5057560;28;20689;-81
2023/12/24 05:34:05;;;;;;;7.90;1.50;;;12.30;99.90;;;;;;5061222;28;20032;-81
2023/12/24 05:36:32;;;;;;;12.40;2.22;;;12.30;99.90;;;;;;5059499;28;20028;-80
2023/12/24 05:38:58;;;;;;;8.48;1.80;;;12.30;99.90;;;;;;5057342;28;20037;-80
2023/12/24 05:41:24;;;;;;;11.85;2.10;;;12.30;99.90;;;;;;5060978;28;20443;-80
2023/12/24 05:43:50;;;;;;;5.95;1.77;;;12.30;99.90;;;;;;5061062;28;20035;-81
2023/12/24 05:46:15;;;;;;;6.43;1.58;;;12.30;99.90;;;;;;5061022;28;20028;-80
2023/12/24 05:48:42;;;;;;;10.10;1.58;;;12.30;99.90;;;;;;5062588;28;20392;-80
2023/12/24 05:51:07;;;;;;;7.85;1.80;;;12.30;99.90;;;;;;5061476;28;20025;-80
2023/12/24 05:53:33;;;;;;;6.50;1.50;;;12.30;99.90;;;;;;5062356;28;20029;-80
2023/12/24 05:55:59;;;;;;;9.43;1.63;;;12.40;99.90;;;;;;5062502;28;20553;-81
2023/12/24 05:58:25;;;;;;;14.25;1.83;;;12.40;99.90;;;;;;5056097;28;20512;-81
2023/12/24 06:00:52;;;;;;;6.85;1.65;;;12.40;99.90;;;;;;5062801;28;20028;-81
2023/12/24 06:03:18;;;;;;;5.85;1.58;;;12.40;99.90;;;;;;5058974;28;20036;-81
2023/12/24 06:05:44;;;;;;;10.77;1.85;;;12.40;99.90;;;;;;5061229;28;20033;-82
2023/12/24 06:08:12;;;;;;;13.13;2.28;;;12.40;99.90;;;;;;5060088;28;20032;-82
2023/12/24 06:10:37;;;;;;;8.70;2.15;;;12.40;99.90;;;;;;5056883;28;20021;-81
2023/12/24 06:13:03;;;;;;;11.93;2.33;;;12.40;99.90;;;;;;5061012;28;20052;-82
2023/12/24 06:15:30;;;;;;;12.98;2.40;;;12.30;99.90;;;;;;5060498;28;20120;-82
2023/12/24 06:17:55;;;;;;;13.35;2.35;;;12.30;99.90;;;;;;5059315;28;20071;-82
2023/12/24 06:20:21;;;;;;;12.23;1.98;;;12.30;99.90;;;;;;5065083;28;20110;-82
2023/12/24 06:22:47;;;;;;;12.27;2.75;;;12.20;99.90;;;;;;5067435;28;20384;-81
2023/12/24 06:25:12;;;;;;;9.48;2.97;;;12.20;99.90;;;;;;5064224;28;20473;-81
2023/12/24 06:27:38;;;;;;;10.57;2.42;;;12.10;99.90;;;;;;5066859;28;20016;-81
2023/12/24 06:30:04;;;;;;;16.77;3.10;;;12.00;99.90;;;;;;5058732;28;20024;-81
2023/12/24 06:32:30;;;;;;;8.32;2.42;;;12.00;99.90;;;;;;5063058;28;20090;-81
2023/12/24 06:34:55;;;;;;;15.77;2.58;;;12.00;99.90;;;;;;5066380;28;20510;-81
2023/12/24 06:37:21;;;;;;;12.07;3.28;;;12.00;99.90;;;;;;5066175;28;20035;-81
2023/12/24 06:39:47;;;;;;;24.25;3.10;;;12.00;99.90;;;;;;5065024;28;20045;-80
2023/12/24 06:42:12;;;;;;;10.55;2.67;;;12.00;99.90;;;;;;5064268;28;20544;-81
2023/12/24 06:44:41;;;;;;;8.60;2.80;;;12.00;99.90;;;;;;5065598;28;20120;-81
2023/12/24 06:47:07;;;;;;;10.10;2.47;;;12.00;99.90;;;;;;5065327;28;20452;-81
2023/12/24 06:49:33;;;;;;;10.25;2.25;;;12.00;99.90;;;;;;5064701;28;20472;-80
2023/12/24 06:51:58;;;;;;;5.30;2.13;;;12.00;99.90;;;;;;5064517;28;20032;-80
2023/12/24 06:54:24;;;;;;;10.35;2.75;;;12.10;99.90;;;;;;5061718;28;20039;-82
2023/12/24 06:56:50;;;;;;;11.57;2.10;;;12.10;99.90;;;;;;5063955;28;20025;-80
2023/12/24 06:59:16;;;;;;;10.10;2.88;;;12.10;99.90;;;;;;5064360;28;20060;-80
2023/12/24 07:01:41;;;;;;;5.65;1.65;;;12.20;99.90;;;;;;5055612;28;20270;-81
2023/12/24 07:04:07;;;;;;;8.65;2.42;;;12.20;99.90;;;;;;5067695;28;20045;-80
2023/12/24 07:06:32;;;;;;;10.38;2.00;;;12.20;99.90;;;;;;5066543;28;20111;-81
2023/12/24 07:08:58;;;;;;;5.95;1.50;;;12.20;99.90;;;;;;5066833;28;20068;-80
2023/12/24 07:11:24;;;;;;;8.98;2.47;;;12.30;99.90;;;;;;5065098;28;20133;-81
2023/12/24 07:13:49;;;;;;;9.95;2.60;;;12.20;99.90;;;;;;5065124;28;20036;-82
2023/12/24 07:16:15;;;;;;;12.80;2.40;;;12.30;99.90;;;;;;5064089;28;20037;-81
2023/12/24 07:18:41;;;;;;;7.57;1.60;;;12.30;99.90;;;;;;5065325;28;20024;-81
2023/12/24 07:21:06;;;;;;;4.43;1.60;;;12.30;99.90;;;;;;5064641;28;20063;-81
2023/12/24 07:23:32;;;;;;;4.95;1.40;;;12.30;99.90;;;;;;5063210;28;20059;-81
2023/12/24 07:25:58;;;;;;;3.50;1.58;;;12.40;99.90;;;;;;5059948;28;20400;-80
2023/12/24 07:28:23;;;;;;;6.07;1.70;;;12.50;99.90;;;;;;5063672;28;20083;-81
2023/12/24 07:30:49;;;;;;;6.32;1.52;;;12.50;99.90;;;;;;5063620;28;20369;-82
2023/12/24 07:33:15;;;;;;;4.72;1.40;;;12.50;99.90;;;;;;5061855;28;20386;-82
2023/12/24 07:35:41;;;;;;;8.18;1.63;;;12.50;99.90;;;;;;5062344;28;20028;-82
2023/12/24 07:38:07;;;;;;;5.95;1.60;;;12.60;99.90;;;;;;5061405;28;20047;-82
2023/12/24 07:40:32;;;;;;;5.93;1.50;;;12.60;99.90;;;;;;5059185;28;20508;-82
2023/12/24 07:42:59;;;;;;;5.78;1.30;;;12.60;99.90;;;;;;5063897;28;20033;-81
2023/12/24 07:45:26;;;;;;;3.47;1.23;;;12.60;99.90;;;;;;5065895;28;20032;-82
2023/12/24 07:47:52;;;;;;;6.25;1.23;;;12.60;99.90;;;;;;5064070;28;20077;-82
2023/12/24 07:50:18;;;;;;;5.68;1.20;;;12.60;99.90;;;;;;5065098;28;20510;-82
2023/12/24 07:52:44;;;;;;;3.42;0.93;;;12.70;99.90;;;;;;5059522;28;20079;-82
2023/12/24 07:55:09;;;;;;;6.38;1.05;;;12.70;99.90;;;;;;5042466;28;20039;-81
2023/12/24 07:57:35;;;;;;;7.75;2.25;;;12.70;99.90;;;;;;5062821;28;20392;-81
2023/12/24 08:00:02;;;;;;;3.13;1.17;;;12.70;99.90;;;;;;5060936;28;20020;-81
2023/12/24 08:02:28;;;;;;;2.63;0.70;;;12.80;99.90;;;;;;5059393;28;20055;-82
2023/12/24 08:04:55;;;;;;;3.03;0.90;;;12.80;99.90;;;;;;5061599;28;20468;-82
2023/12/24 08:07:23;;;;;;;4.03;1.00;;;12.80;99.90;;;;;;5056211;28;20086;-81
2023/12/24 08:09:48;;;;;;;2.53;0.50;;;12.90;99.90;;;;;;5056906;28;20066;-81
2023/12/24 08:12:15;;;;;;;3.17;0.90;;;12.90;99.90;;;;;;5063751;28;20040;-82
2023/12/24 08:14:40;;;;;;;2.63;0.57;;;12.90;99.90;;;;;;5061975;28;20097;-82
2023/12/24 08:17:06;;;;;;;1.65;0.50;;;12.90;99.90;;;;;;5063443;28;20424;-81
2023/12/24 08:19:32;;;;;;;1.77;0.70;;;13.00;99.90;;;;;;5068779;28;20153;-82
2023/12/24 08:21:58;;;;;;;1.77;0.90;;;13.00;99.90;;;;;;5072984;28;20028;-81
2023/12/24 08:24:24;;;;;;;2.75;0.73;;;13.00;99.90;;;;;;5075149;28;20021;-81
2023/12/24 08:26:51;;;;;;;2.67;0.60;;;13.00;99.90;;;;;;5072152;28;20126;-81
2023/12/24 08:29:16;;;;;;;5.88;1.45;;;13.00;99.90;;;;;;5077925;28;20033;-81
2023/12/24 08:31:42;;;;;;;1.02;0.35;;;13.10;99.90;;;;;;5077741;28;20919;-83
2023/12/24 08:34:08;;;;;;;3.00;0.50;;;13.10;99.90;;;;;;5065789;28;20047;-81
2023/12/24 08:36:33;;;;;;;1.95;0.68;;;13.10;99.90;;;;;;5063581;28;20444;-80
2023/12/24 08:38:59;;;;;;;2.10;0.55;;;13.20;99.90;;;;;;5066847;28;20033;-81
2023/12/24 08:41:24;;;;;;;2.30;0.68;;;13.20;99.90;;;;;;5061509;28;20048;-81
2023/12/24 08:43:50;;;;;;;1.85;0.60;;;13.20;99.90;;;;;;5063810;28;20110;-81
2023/12/24 08:46:16;;;;;;;5.10;0.80;;;13.20;99.90;;;;;;5062836;28;20146;-81
2023/12/24 08:48:43;;;;;;;2.13;0.85;;;13.20;99.90;;;;;;5059864;28;20032;-81
2023/12/24 08:51:09;;;;;;;2.10;1.10;;;13.20;99.90;;;;;;5061271;28;20553;-81
2023/12/24 08:53:34;;;;;;;3.97;1.15;;;13.30;99.90;;;;;;5058738;28;20172;-81
2023/12/24 08:56:00;;;;;;;4.88;1.10;;;13.20;99.90;;;;;;5061814;28;20319;-81
2023/12/24 08:58:26;;;;;;;4.78;1.50;;;13.30;99.90;;;;;;5060800;28;20616;-82
2023/12/24 09:00:52;;;;;;;6.63;1.73;;;13.20;99.90;;;;;;5061642;28;20029;-82
2023/12/24 09:03:18;;;;;;;9.13;2.10;;;13.20;99.90;;;;;;5058904;28;20032;-81
2023/12/24 09:05:43;;;;;;;7.88;2.15;;;13.20;99.90;;;;;;5060983;28;20067;-82
2023/12/24 09:08:09;;;;;;;7.43;1.88;;;13.20;99.90;;;;;;5059227;28;20032;-82
2023/12/24 09:10:35;;;;;;;6.38;2.53;;;13.20;99.90;;;;;;5059606;28;20078;-83
2023/12/24 09:13:00;;;;;;;7.22;2.15;;;13.20;99.90;;;;;;5060071;28;20028;-84
2023/12/24 09:15:26;;;;;;;6.13;2.35;;;13.20;99.90;;;;;;5061035;28;20039;-81
2023/12/24 09:17:52;;;;;;;5.00;2.20;;;13.20;99.90;;;;;;5060548;28;20037;-81
2023/12/24 09:20:17;;;;;;;8.77;2.80;;;13.20;99.90;;;;;;5052947;28;21187;-81
2023/12/24 09:22:43;;;;;;;6.00;2.10;;;13.20;99.90;;;;;;5055472;28;20041;-81
2023/12/24 09:25:09;;;;;;;8.68;2.47;;;13.20;99.90;;;;;;5043234;28;20028;-81
2023/12/24 09:27:34;;;;;;;10.50;2.70;;;13.20;99.90;;;;;;5057194;28;20064;-81
2023/12/24 09:30:04;;;;;;;15.05;2.05;;;13.20;99.90;;;;;;5063561;28;20276;-81
2023/12/24 09:32:31;;;;;;;9.43;2.90;;;13.20;99.90;;;;;;5062250;28;20040;-81
2023/12/24 09:34:56;;;;;;;8.40;2.20;;;13.30;99.90;;;;;;5062601;28;20035;-81
2023/12/24 09:37:22;;;;;;;7.80;2.25;;;13.30;99.90;;;;;;5062254;28;20329;-81
2023/12/24 09:39:47;;;;;;;5.72;1.83;;;13.30;99.90;;;;;;5054136;28;20512;-80
2023/12/24 09:42:13;;;;;;;6.70;1.92;;;13.30;99.90;;;;;;5063667;28;20032;-79
2023/12/24 09:44:39;;;;;;;3.65;1.83;;;13.30;99.90;;;;;;5055485;28;20411;-81
2023/12/24 09:47:05;;;;;;;7.75;2.05;;;13.40;99.90;;;;;;5061259;28;20387;-82
2023/12/24 09:49:31;;;;;;;9.57;2.05;;;13.30;99.90;;;;;;5058749;28;20495;-81
2023/12/24 09:51:59;;;;;;;8.25;2.47;;;13.40;99.90;;;;;;5052779;28;20028;-82
2023/12/24 09:54:25;;;;;;;3.95;1.65;;;13.40;99.90;;;;;;5062701;28;20537;-81
2023/12/24 09:56:50;;;;;;;11.82;2.38;;;13.40;99.90;;;;;;5060436;28;20033;-81
2023/12/24 09:59:16;;;;;;;6.22;1.65;;;13.40;99.90;;;;;;5063739;28;20436;-81
2023/12/24 10:01:44;;;;;;;9.63;2.33;;;13.40;99.90;;;;;;5047147;28;20364;-81
2023/12/24 10:04:10;;;;;;;6.70;1.73;;;13.50;99.90;;;;;;5063238;28;20178;-82
2023/12/24 10:06:54;;;;;;;6.72;1.90;;;13.50;99.90;;;;;;5062584;28;20115;-81
2023/12/24 10:09:21;;;;;;;9.80;2.10;;;13.50;99.90;;;;;;5056539;28;20104;-82
2023/12/24 10:12:04;;;;;;;6.80;1.70;;;13.50;99.90;;;;;;5059127;28;20055;-82
2023/12/24 10:14:29;;;;;;;5.25;1.85;;;13.50;99.90;;;;;;5062470;28;20028;-82
2023/12/24 10:16:55;;;;;;;8.77;2.10;;;13.60;99.90;;;;;;5061869;28;20117;-82
2023/12/24 10:19:25;;;;;;;6.78;2.10;;;13.50;99.90;;;;;;5067511;28;20024;-81
2023/12/24 10:22:11;;;;;;;11.20;2.22;;;13.50;99.90;;;;;;5063265;28;20432;-82
2023/12/24 10:24:38;;;;;;;7.38;2.00;;;13.50;99.90;;;;;;5059099;28;20036;-82
2023/12/24 10:27:06;;;;;;;9.18;2.63;;;13.50;99.90;;;;;;5053527;28;20016;-81
2023/12/24 10:29:33;;;;;;;7.65;2.17;;;13.50;99.90;;;;;;5066205;28;20055;-82
2023/12/24 10:31:59;;;;;;;6.97;2.30;;;13.50;99.90;;;;;;5062684;28;20050;-82
2023/12/24 10:34:25;;;;;;;6.88;2.90;;;13.50;99.90;;;;;;5064103;28;20037;-81
2023/12/24 10:36:50;;;;;;;6.90;2.50;;;13.50;99.90;;;;;;5062332;28;20089;-81
2023/12/24 10:39:18;;;;;;;10.45;2.42;;;13.50;99.90;;;;;;5064870;28;20028;-80
2023/12/24 10:41:44;;;;;;;11.32;3.15;;;13.50;99.90;;;;;;5063826;28;20036;-81
2023/12/24 10:44:10;;;;;;;11.77;2.97;;;13.50;99.90;;;;;;5067942;28;20116;-80
2023/12/24 10:46:36;;;;;;;9.45;2.35;;;13.50;99.90;;;;;;5067876;28;20021;-80
2023/12/24 10:49:02;;;;;;;7.03;2.22;;;13.50;99.90;;;;;;5065879;28;20032;-80
2023/12/24 10:51:28;;;;;;;9.35;2.47;;;13.60;99.90;;;;;;5065302;28;20078;-81
2023/12/24 10:53:53;;;;;;;8.45;2.78;;;13.60;99.90;;;;;;5059508;28;20488;-81
2023/12/24 10:56:27;;;;;;;8.40;2.42;;;13.60;99.90;;;;;;5067769;28;20067;-81
2023/12/24 10:59:10;;;;;;;7.30;2.55;;;13.60;99.90;;;;;;5066744;28;20029;-82
2023/12/24 11:01:36;;;;;;;10.45;2.78;;;13.60;99.90;;;;;;5064126;28;20039;-81
2023/12/24 11:04:02;;;;;;;9.60;2.67;;;13.50;99.90;;;;;;5063368;28;20163;-81
2023/12/24 11:06:44;;;;;;;10.73;2.97;;;13.50;99.90;;;;;;5061556;28;20079;-81
2023/12/24 11:09:30;;;;;;;6.63;2.50;;;13.50;99.90;;;;;;5059710;28;20032;-80
2023/12/24 11:11:57;;;;;;;5.70;2.78;;;13.50;99.90;;;;;;5059917;28;20190;-80
2023/12/24 11:14:45;;;;;;;7.97;2.67;;;13.40;99.90;;;;;;5062994;28;20016;-81
2023/12/24 11:17:41;;;;;;;7.50;2.83;;;13.40;99.90;;;;;;5059608;28;20028;-81
2023/12/24 11:20:27;;;;;;;8.82;2.78;;;13.40;99.90;;;;;;5062008;28;20044;-80
2023/12/24 11:23:10;;;;;;;11.10;2.60;;;13.40;99.90;;;;;;5056578;28;20024;-80
2023/12/24 11:25:37;;;;;;;12.52;3.03;;;13.40;99.90;;;;;;5064390;28;20024;-81
2023/12/24 11:28:04;;;;;;;8.23;2.65;;;13.50;99.90;;;;;;5061833;28;20111;-81
2023/12/24 11:30:50;;;;;;;6.80;2.50;;;13.40;99.90;;;;;;5061359;28;20554;-80
2023/12/24 11:33:54;;;;;;;8.85;2.95;;;13.50;99.90;;;;;;5058027;28;20510;-80
2023/12/24 11:36:20;;;;;;;10.18;2.60;;;13.50;99.90;;;;;;5062460;28;20062;-80
2023/12/24 11:38:47;;;;;;;8.48;2.58;;;13.50;99.90;;;;;;5065798;28;20028;-80
2023/12/24 11:41:23;;;;;;;12.95;2.92;;;13.50;99.90;;;;;;5061085;28;20067;-80
2023/12/24 11:43:58;;;;;;;12.45;3.58;;;13.50;99.90;;;;;;5062121;28;20040;-80
2023/12/24 11:46:25;;;;;;;;;;;13.60;99.90;;;;;;5061444;28;20060;-80
2023/12/24 11:48:54;;;;;;;9.73;2.72;;;13.60;99.90;;;;;;5066854;28;19912;-82
2023/12/24 11:51:23;;;;;;;8.88;2.65;;;13.60;99.90;;;;;;5063083;28;20055;-82
2023/12/24 11:53:49;;;;;;;5.75;2.30;;;13.60;99.90;;;;;;5064434;28;20028;-81
2023/12/24 11:56:17;;;;;;;11.77;2.70;;;13.60;99.90;;;;;;5054614;28;20031;-81
2023/12/24 11:59:01;;;;;;;6.57;2.42;;;13.60;99.90;;;;;;5059581;28;20031;-81
2023/12/24 12:01:30;;;;;;;8.52;2.53;;;13.60;99.90;;;;;;5062781;28;20040;-80
2023/12/24 12:03:57;;;;;;;9.48;3.20;;;13.50;99.90;;;;;;5062193;28;20040;-80
2023/12/24 12:06:25;;;;;;;7.55;2.50;;;13.60;99.90;;;;;;5063347;28;20218;-81
2023/12/24 12:08:50;;;;;;;12.90;2.40;;;13.60;99.90;;;;;;5060420;28;21518;-81
2023/12/24 12:11:16;;;;;;;8.15;1.83;;;13.50;99.90;;;;;;5062906;28;20540;-81
2023/12/24 12:13:41;;;;;;;3.75;1.55;;;13.50;99.90;;;;;;5064482;28;20028;-81
2023/12/24 12:16:07;;;;;;;8.68;2.50;;;13.40;99.90;;;;;;5061291;28;20040;-80
2023/12/24 12:18:32;;;;;;;9.20;2.20;;;13.40;99.90;;;;;;5060535;28;20032;-81
2023/12/24 12:20:58;;;;;;;8.23;1.75;;;13.40;99.90;;;;;;5058039;28;20040;-81
2023/12/24 12:23:24;;;;;;;5.80;1.60;;;13.30;99.90;;;;;;5060179;28;20503;-80
2023/12/24 12:25:49;;;;;;;5.15;1.50;;;13.30;99.90;;;;;;5063685;28;20067;-81
2023/12/24 12:28:15;;;;;;;3.78;1.95;;;13.30;99.90;;;;;;5065292;28;20033;-81
2023/12/24 12:30:41;;;;;;;7.32;1.88;;;13.20;99.90;;;;;;5064160;28;20103;-80
2023/12/24 12:33:07;;;;;;;6.75;2.10;;;13.20;99.90;;;;;;5060322;28;20059;-80
2023/12/24 12:35:34;;;;;;;9.52;2.35;;;13.20;99.90;;;;;;5064888;28;20323;-81
2023/12/24 12:37:59;;;;;;;5.88;1.83;;;13.20;99.90;;;;;;5065481;28;20119;-81
2023/12/24 12:40:25;;;;;;;6.07;2.03;;;13.20;99.90;;;;;;5063230;28;20119;-81
2023/12/24 12:42:51;;;;;;;5.25;1.77;;;13.20;99.90;;;;;;5058287;28;20066;-82